Time;durP1;ratioP1;P1;durP2;ratioP2;P2;SDS_P1;SDS_P2;PMS_P1;PMS_P2;Temp;Humidity;BMP_temperature;BMP_pressure;BME280_temperature;BME280_humidity;BME280_pressure;Samples;Min_cycle;Max_cycle;Signal;HPM_P1;HPM_P2
2022/05/14 00:01:29;;;;;;;3.20;1.10;;;;;;;13.25;51.13;101041.77;1739438;81;20990;-77
2022/05/14 00:03:56;;;;;;;2.72;1.40;;;;;;;13.24;51.15;101039.20;1737184;81;21014;-75
2022/05/14 00:06:27;;;;;;;4.75;1.45;;;;;;;13.22;51.19;101039.67;1733856;81;21327;-78
2022/05/14 00:08:54;;;;;;;2.00;1.32;;;;;;;13.18;51.28;101040.17;1739911;81;20950;-77
2022/05/14 00:14:14;;;;;;;3.85;1.65;;;;;;;13.16;51.86;101038.50;1724655;81;20105;-77
2022/05/14 00:16:40;;;;;;;6.25;1.30;;;;;;;13.15;51.42;101040.64;1727602;82;20871;-77
2022/05/14 00:19:08;;;;;;;4.47;1.50;;;;;;;13.15;51.49;101039.34;1740596;82;20930;-77
2022/05/14 00:21:35;;;;;;;2.47;1.40;;;;;;;13.16;51.56;101041.95;1735274;81;20968;-77
2022/05/14 00:24:03;;;;;;;4.87;1.72;;;;;;;13.15;51.61;101037.61;1726604;81;20891;-77
2022/05/14 00:26:30;;;;;;;2.55;1.00;;;;;;;13.15;51.66;101035.45;1729023;82;20910;-77
2022/05/14 00:28:56;;;;;;;6.43;1.70;;;;;;;13.16;51.76;101030.70;1737098;81;20922;-75
2022/05/14 00:31:22;;;;;;;2.43;1.30;;;;;;;13.17;51.79;101037.17;1806617;79;20866;-75
2022/05/14 00:33:50;;;;;;;5.58;1.57;;;;;;;13.16;51.87;101035.45;1786714;78;20898;-77
2022/05/14 00:36:16;;;;;;;5.87;2.10;;;;;;;13.18;51.93;101038.88;1707620;84;20961;-77
2022/05/14 00:38:42;;;;;;;4.03;1.30;;;;;;;13.20;52.00;101039.70;1768010;78;20957;-77
2022/05/14 00:41:10;;;;;;;3.75;1.30;;;;;;;13.21;51.99;101040.12;1805723;79;20913;-77
2022/05/14 00:43:52;;;;;;;3.65;1.40;;;;;;;13.20;52.10;101033.66;1806171;79;20945;-77
2022/05/14 00:46:45;;;;;;;6.70;1.67;;;;;;;13.20;52.15;101035.80;1802494;78;20882;-77
2022/05/14 00:49:13;;;;;;;2.77;1.22;;;;;;;13.20;52.21;101042.30;1785150;79;21308;-76
2022/05/14 00:51:42;;;;;;;2.60;1.40;;;;;;;13.24;52.31;101035.30;1805546;79;20883;-77
2022/05/14 00:54:13;;;;;;;2.92;1.40;;;;;;;13.24;52.35;101032.27;1779188;78;20902;-77
2022/05/14 00:56:56;;;;;;;2.55;1.15;;;;;;;13.25;52.39;101031.38;1813927;77;20846;-77
2022/05/14 00:59:26;;;;;;;3.02;1.10;;;;;;;13.27;52.42;101028.75;1750794;80;21082;-76
2022/05/14 01:01:52;;;;;;;2.92;1.20;;;;;;;13.30;52.52;101029.13;1814741;78;20851;-76
2022/05/14 01:04:20;;;;;;;3.93;1.10;;;;;;;13.29;52.53;101028.27;1824673;77;20902;-76
2022/05/14 01:06:57;;;;;;;2.85;1.25;;;;;;;13.28;52.58;101030.46;1780635;78;20969;-77
2022/05/14 01:09:25;;;;;;;4.37;1.25;;;;;;;13.30;52.70;101029.13;1832612;77;20945;-76
2022/05/14 01:11:54;;;;;;;4.45;1.57;;;;;;;13.31;52.76;101023.91;1721492;82;21109;-77
2022/05/14 01:14:21;;;;;;;2.08;1.15;;;;;;;13.33;52.82;101026.03;1790908;79;21004;-76
2022/05/14 01:16:47;;;;;;;4.45;1.40;;;;;;;13.35;52.85;101023.40;1805643;78;20883;-78
2022/05/14 01:19:13;;;;;;;7.20;1.32;;;;;;;13.36;52.90;101023.81;1754071;81;20863;-77
2022/05/14 01:22:14;;;;;;;5.35;1.10;;;;;;;13.37;52.95;101029.42;1785915;79;20923;-78
2022/05/14 01:28:00;;;;;;;5.17;1.42;;;;;;;13.32;52.97;101027.36;1763193;80;20899;-77
2022/05/14 01:30:32;;;;;;;3.77;1.80;;;;;;;13.29;53.07;101025.68;1754829;80;20938;-76
2022/05/14 01:33:05;;;;;;;3.33;1.30;;;;;;;13.28;53.14;101019.22;1790497;79;20887;-77
2022/05/14 01:35:37;;;;;;;2.98;1.35;;;;;;;13.25;53.20;101021.44;1737655;82;20917;-77
2022/05/14 01:38:04;;;;;;;1.82;1.10;;;;;;;13.26;53.23;101021.84;1723633;83;20938;-77
2022/05/14 01:40:31;;;;;;;;;;;;;;;13.23;53.29;101016.71;1742654;81;20926;-77
2022/05/14 01:42:58;;;;;;;6.08;1.45;;;;;;;13.24;53.78;101016.68;1753834;81;20121;-77
2022/05/14 01:45:25;;;;;;;6.35;1.72;;;;;;;13.23;53.38;101005.88;1741982;80;20997;-76
2022/05/14 01:47:52;;;;;;;5.37;1.60;;;;;;;13.22;53.41;101011.97;1739026;81;20942;-77
2022/05/14 01:50:19;;;;;;;2.58;1.52;;;;;;;13.21;53.47;101012.84;1723210;80;20926;-77
2022/05/14 01:52:45;;;;;;;2.23;1.43;;;;;;;13.19;53.48;101017.22;1768435;80;20862;-77
2022/05/14 01:55:11;;;;;;;3.23;1.53;;;;;;;13.15;53.57;101010.34;1777833;80;20886;-77
2022/05/14 01:57:37;;;;;;;8.13;1.33;;;;;;;13.11;53.62;101011.73;1752656;80;20838;-77
2022/05/14 02:00:08;;;;;;;3.25;1.30;;;;;;;13.10;53.66;101012.17;1746726;81;20922;-77
2022/05/14 02:02:34;;;;;;;3.37;1.55;;;;;;;13.11;53.73;101013.89;1746688;81;21351;-77
2022/05/14 02:05:00;;;;;;;5.22;1.37;;;;;;;13.09;53.80;101015.66;1733008;82;20898;-77
2022/05/14 02:07:26;;;;;;;6.83;1.73;;;;;;;13.11;53.81;101017.78;1735518;80;20894;-78
2022/05/14 02:09:53;;;;;;;5.80;1.90;;;;;;;13.11;53.88;101017.78;1771614;80;20867;-77
2022/05/14 02:12:19;;;;;;;3.65;1.52;;;;;;;13.15;53.95;101014.68;1777754;80;20930;-77
2022/05/14 02:14:45;;;;;;;4.00;1.90;;;;;;;13.16;53.94;101010.78;1756207;80;20921;-77
2022/05/14 02:17:17;;;;;;;4.17;1.57;;;;;;;13.18;53.99;101015.95;1746388;80;20887;-77
2022/05/14 02:19:44;;;;;;;3.00;1.45;;;;;;;13.20;54.01;101021.97;1793651;78;20898;-77
2022/05/14 02:22:10;;;;;;;4.13;1.60;;;;;;;13.15;54.04;101027.22;1712303;82;20959;-77
2022/05/14 02:24:38;;;;;;;3.57;1.60;;;;;;;13.13;54.12;101026.39;1748090;79;21097;-77
2022/05/14 02:27:05;;;;;;;2.87;1.30;;;;;;;13.14;54.24;101029.41;1744711;80;20902;-78
2022/05/14 02:29:53;;;;;;;3.52;1.65;;;;;;;13.16;54.30;101034.60;1808734;79;21391;-77
2022/05/14 02:32:23;;;;;;;5.40;1.90;;;;;;;13.19;54.31;101026.75;1715873;83;20888;-77
2022/05/14 02:35:04;;;;;;;4.97;1.72;;;;;;;13.18;54.37;101018.10;1783385;78;20909;-77
2022/05/14 02:37:32;;;;;;;4.37;1.77;;;;;;;13.17;54.40;101005.15;1817989;77;20981;-76
2022/05/14 02:39:58;;;;;;;4.42;1.85;;;;;;;13.16;54.41;100991.76;1799091;78;21075;-77
2022/05/14 02:42:26;;;;;;;2.22;1.12;;;;;;;13.13;54.49;100983.55;1798326;77;20992;-77
2022/05/14 02:44:52;;;;;;;3.87;1.62;;;;;;;13.12;54.54;100989.63;1811137;78;21041;-77
2022/05/14 02:47:18;;;;;;;3.23;1.20;;;;;;;13.09;54.53;100992.73;1810128;77;21024;-76
2022/05/14 02:49:45;;;;;;;3.72;1.80;;;;;;;13.06;54.60;100994.95;1812346;79;21072;-76
2022/05/14 02:52:12;;;;;;;3.17;1.23;;;;;;;13.03;54.59;100999.34;1812891;78;20960;-76
2022/05/14 02:54:39;;;;;;;2.20;1.50;;;;;;;12.96;54.65;101000.38;1814745;78;20921;-76
2022/05/14 02:57:08;;;;;;;3.47;1.50;;;;;;;12.88;54.63;101004.42;1731849;81;21393;-76
2022/05/14 02:59:34;;;;;;;3.60;1.37;;;;;;;12.79;54.70;101008.48;1809769;77;20894;-76
2022/05/14 03:02:03;;;;;;;4.50;1.20;;;;;;;12.71;54.79;101002.14;1808612;78;20894;-76
2022/05/14 03:04:36;;;;;;;8.13;1.95;;;;;;;12.62;54.79;101007.50;1804278;79;21387;-76
2022/05/14 03:07:01;;;;;;;4.60;1.60;;;;;;;12.52;54.84;101004.65;1785065;79;20887;-76
2022/05/14 03:09:27;;;;;;;4.65;1.62;;;;;;;12.42;54.93;101009.17;1768609;80;20898;-76
2022/05/14 03:11:53;;;;;;;3.62;2.12;;;;;;;12.34;54.96;101012.34;1780465;79;21326;-76
2022/05/14 03:14:19;;;;;;;8.93;1.30;;;;;;;12.28;55.03;101015.47;1812343;78;20843;-76
2022/05/14 03:16:46;;;;;;;3.27;1.42;;;;;;;12.23;55.08;101020.73;1810284;78;21375;-76
2022/05/14 03:19:13;;;;;;;2.55;1.42;;;;;;;12.14;55.08;101018.28;1824767;77;20855;-76
2022/05/14 03:21:40;;;;;;;4.53;1.70;;;;;;;12.04;55.15;101018.87;1845064;77;20878;-76
2022/05/14 03:24:07;;;;;;;3.95;1.70;;;;;;;11.99;55.18;101019.81;1800701;77;21033;-76
2022/05/14 03:26:33;;;;;;;6.58;1.72;;;;;;;11.91;55.31;101023.85;1779796;77;20945;-76
2022/05/14 03:28:59;;;;;;;2.47;1.53;;;;;;;11.85;55.36;101015.73;1779690;80;21386;-76
2022/05/14 03:31:26;;;;;;;3.47;1.83;;;;;;;11.81;55.46;101020.54;1795270;77;21444;-76
2022/05/14 03:33:52;;;;;;;2.97;1.80;;;;;;;11.80;55.54;101025.30;1809298;79;21363;-77
2022/05/14 03:36:18;;;;;;;3.00;1.60;;;;;;;11.83;55.58;101024.41;1786647;78;21379;-77
2022/05/14 03:38:44;;;;;;;5.27;1.70;;;;;;;11.81;55.65;101016.66;1780185;78;21395;-77
2022/05/14 03:41:10;;;;;;;6.28;2.00;;;;;;;11.82;55.75;101026.14;1804378;79;20914;-76
2022/05/14 03:43:37;;;;;;;2.70;1.47;;;;;;;11.84;55.81;101030.00;1804165;79;20921;-76
2022/05/14 03:46:03;;;;;;;5.53;1.70;;;;;;;11.88;55.89;101023.45;1805881;78;23316;-76
2022/05/14 03:48:30;;;;;;;4.27;1.67;;;;;;;11.91;55.96;101022.11;1837063;77;21407;-75
2022/05/14 03:50:55;;;;;;;4.80;2.00;;;;;;;11.90;55.98;101015.22;1824080;78;21300;-75
2022/05/14 03:53:22;;;;;;;2.93;1.40;;;;;;;11.93;56.03;101009.14;1710813;82;20959;-76
2022/05/14 03:55:48;;;;;;;3.72;1.70;;;;;;;11.95;56.09;101019.48;1755052;81;20902;-79
2022/05/14 03:58:15;;;;;;;2.30;1.52;;;;;;;11.97;56.17;101020.28;1746095;81;21467;-79
2022/05/14 04:00:41;;;;;;;7.25;2.10;;;;;;;12.00;56.24;101017.64;1748946;79;20938;-79
2022/05/14 04:03:07;;;;;;;4.62;1.90;;;;;;;12.04;56.30;101011.53;1750730;79;21373;-79
2022/05/14 04:05:33;;;;;;;3.87;1.82;;;;;;;12.06;56.31;101006.73;1756440;79;21415;-79
2022/05/14 04:08:00;;;;;;;;;;;;;;;12.09;56.33;101005.39;1749896;79;22342;-79
2022/05/14 04:10:26;;;;;;;3.63;1.83;;;;;;;12.12;56.90;101005.78;1751436;81;20207;-79
2022/05/14 04:12:54;;;;;;;2.33;2.00;;;;;;;12.14;56.51;101016.99;1751897;79;21057;-80
2022/05/14 04:15:23;;;;;;;3.77;2.15;;;;;;;12.06;56.56;101002.00;1752211;79;21344;-80
2022/05/14 04:17:49;;;;;;;5.08;1.80;;;;;;;12.22;56.56;101013.83;1749315;79;20962;-80
2022/05/14 04:20:15;;;;;;;4.12;1.80;;;;;;;12.22;56.64;101006.06;1748654;79;21553;-80
2022/05/14 04:22:41;;;;;;;4.00;2.03;;;;;;;12.25;56.71;101002.97;1748184;79;20926;-77
2022/05/14 04:25:08;;;;;;;3.07;1.97;;;;;;;12.28;56.80;100998.17;1750698;80;21763;-77
2022/05/14 04:27:35;;;;;;;5.87;2.35;;;;;;;12.33;56.83;101000.25;1756453;81;21349;-77
2022/05/14 04:30:01;;;;;;;6.58;2.00;;;;;;;12.40;56.89;100994.52;1734775;81;21871;-77
2022/05/14 04:32:27;;;;;;;5.80;2.37;;;;;;;12.48;56.94;100990.02;1746779;80;28080;-78
2022/05/14 04:34:53;;;;;;;4.90;2.67;;;;;;;12.54;57.00;101001.59;1754068;81;20942;-78
2022/05/14 04:37:19;;;;;;;8.83;2.50;;;;;;;12.61;57.02;100999.30;1750495;80;21526;-78
2022/05/14 04:39:45;;;;;;;4.40;2.47;;;;;;;12.68;56.99;101002.64;1725447;81;21372;-77
2022/05/14 04:42:11;;;;;;;2.57;1.90;;;;;;;12.70;57.05;101006.91;1744367;80;21574;-78
2022/05/14 04:44:39;;;;;;;4.60;1.75;;;;;;;12.75;57.06;101005.53;1756019;79;20907;-78
2022/05/14 04:47:06;;;;;;;4.62;2.15;;;;;;;12.80;57.09;100999.82;1752498;81;20883;-78
2022/05/14 04:49:32;;;;;;;3.30;2.02;;;;;;;12.85;57.12;100996.25;1729912;81;28499;-78
2022/05/14 04:51:58;;;;;;;4.27;1.93;;;;;;;12.92;57.18;100994.39;1750623;81;20888;-78
2022/05/14 04:54:24;;;;;;;5.05;2.00;;;;;;;13.02;57.21;100993.74;1752734;80;20887;-78
2022/05/14 04:56:50;;;;;;;3.80;2.00;;;;;;;13.09;57.25;100992.29;1752739;81;20859;-78
2022/05/14 04:59:17;;;;;;;6.73;2.40;;;;;;;13.22;57.31;100992.48;1751660;80;20923;-79
2022/05/14 05:04:32;;;;;;;6.25;1.85;;;;;;;13.54;57.38;100994.37;1748862;81;20888;-79
2022/05/14 05:06:58;;;;;;;5.50;2.25;;;;;;;13.71;57.42;100987.50;1750631;81;20848;-79
2022/05/14 05:09:25;;;;;;;4.17;2.43;;;;;;;14.03;57.46;100989.34;1752958;81;20911;-79
2022/05/14 05:11:51;;;;;;;7.33;2.20;;;;;;;14.42;57.57;100994.01;1749561;80;21372;-79
2022/05/14 05:14:18;;;;;;;3.42;2.35;;;;;;;15.35;57.71;100982.25;1750887;80;20883;-78
2022/05/14 05:16:44;;;;;;;4.30;2.00;;;;;;;15.35;57.71;100982.25;1745502;81;27432;-78
2022/05/14 05:19:10;;;;;;;7.85;2.47;;;;;;;15.66;57.35;101002.19;1752910;81;20950;-79
2022/05/14 05:21:36;;;;;;;8.53;2.12;;;;;;;15.69;57.22;101000.79;1750356;81;20872;-78
2022/05/14 05:24:05;;;;;;;3.97;2.20;;;;;;;15.73;57.18;101000.65;1798536;79;20857;-78
2022/05/14 05:26:31;;;;;;;6.15;2.10;;;;;;;15.92;57.15;101004.84;1805266;78;20926;-78
2022/05/14 05:28:57;;;;;;;4.70;2.03;;;;;;;16.25;57.38;101002.87;1802649;78;20933;-78
2022/05/14 05:31:22;;;;;;;8.27;2.37;;;;;;;16.73;57.27;101004.27;1787927;78;20904;-78
2022/05/14 05:33:48;;;;;;;4.10;1.60;;;;;;;17.17;57.34;101007.87;1767786;78;230825;-78
2022/05/14 05:36:14;;;;;;;6.20;2.27;;;;;;;17.76;57.21;101014.36;1728711;80;20938;-78
2022/05/14 05:38:40;;;;;;;4.90;1.73;;;;;;;17.91;56.68;101016.37;1762053;80;20874;-78
2022/05/14 05:41:07;;;;;;;5.03;1.85;;;;;;;17.71;56.51;101013.23;1765129;80;20938;-78
2022/05/14 05:43:33;;;;;;;3.58;1.95;;;;;;;17.53;56.34;101005.63;1765626;80;20909;-78
2022/05/14 05:45:59;;;;;;;5.50;2.40;;;;;;;17.32;56.39;101008.20;1726285;81;20898;-77
2022/05/14 05:48:25;;;;;;;6.13;2.50;;;;;;;17.15;56.21;101009.72;1716057;82;20918;-77
2022/05/14 05:50:55;;;;;;;5.28;2.47;;;;;;;16.97;56.17;101019.53;1739552;80;20883;-77
2022/05/14 05:56:46;;;;;;;5.23;3.07;;;;;;;16.90;56.33;101023.27;1744487;80;22059;-78
2022/05/14 05:58:35;;;;;;;7.72;3.12;;;;;;;17.86;56.31;101023.09;1718369;81;20942;-77
2022/05/14 06:01:01;;;;;;;6.30;3.63;;;;;;;18.48;56.34;101024.04;1725820;80;20887;-77
2022/05/14 06:03:27;;;;;;;9.43;3.70;;;;;;;18.82;56.14;101019.52;1745894;80;20938;-77
2022/05/14 06:05:57;;;;;;;12.98;3.92;;;;;;;19.04;56.01;101018.97;1749398;81;20957;-77
2022/05/14 06:08:24;;;;;;;11.48;4.35;;;;;;;19.44;55.90;101021.92;1742336;81;20895;-77
2022/05/14 06:10:50;;;;;;;8.15;3.77;;;;;;;19.67;55.67;101010.39;1737037;80;20917;-77
2022/05/14 06:13:17;;;;;;;8.87;3.60;;;;;;;20.01;55.53;101015.30;1740821;80;21689;-77
2022/05/14 06:15:43;;;;;;;5.17;2.10;;;;;;;20.27;55.26;101016.19;1738983;80;20907;-77
2022/05/14 06:18:11;;;;;;;4.95;2.30;;;;;;;20.56;55.10;101021.30;1738267;80;20939;-77
2022/05/14 06:20:39;;;;;;;6.65;1.87;;;;;;;20.81;54.83;101025.66;1730096;82;20906;-77
2022/05/14 06:23:06;;;;;;;3.67;1.70;;;;;;;21.05;54.51;101023.52;1722318;80;20954;-77
2022/05/14 06:25:34;;;;;;;4.25;1.87;;;;;;;21.33;54.61;101025.53;1730118;80;20898;-77
2022/05/14 06:28:00;;;;;;;5.47;2.22;;;;;;;21.66;53.98;101028.11;1737878;80;20927;-77
2022/05/14 06:30:26;;;;;;;5.97;1.87;;;;;;;21.89;53.89;101024.63;1732356;80;21526;-77
2022/05/14 06:33:03;;;;;;;7.60;2.15;;;;;;;22.09;53.69;101016.47;1724484;82;20950;-77
2022/05/14 06:35:29;;;;;;;3.90;1.90;;;;;;;22.13;53.16;101026.75;1721161;81;20914;-77
2022/05/14 06:37:56;;;;;;;7.37;2.20;;;;;;;22.19;53.04;101025.55;1723847;81;20938;-77
2022/05/14 06:40:22;;;;;;;;;;;;;;;22.33;52.82;101040.09;1729051;82;20890;-77
2022/05/14 06:42:48;;;;;;;6.17;1.90;;;;;;;22.66;52.28;101037.70;1729017;82;20130;-77
2022/05/14 06:45:14;;;;;;;6.33;1.70;;;;;;;22.94;52.36;101032.94;1688828;83;20863;-82
2022/05/14 06:47:40;;;;;;;9.13;2.07;;;;;;;22.80;52.12;101035.12;1706495;82;20963;-81
2022/05/14 06:50:07;;;;;;;7.10;1.90;;;;;;;22.65;51.91;101031.58;1709190;82;20962;-81
2022/05/14 06:52:35;;;;;;;9.68;3.37;;;;;;;22.34;51.51;101046.20;1716888;82;21143;-81
2022/05/14 06:55:02;;;;;;;4.42;1.87;;;;;;;22.18;51.54;101039.66;1719265;82;21432;-81
2022/05/14 06:57:30;;;;;;;3.62;1.60;;;;;;;22.24;50.98;101039.30;1723242;82;21428;-81
2022/05/14 06:59:56;;;;;;;6.83;2.10;;;;;;;22.13;50.89;101040.39;1728899;81;21088;-77
2022/05/14 07:02:26;;;;;;;6.67;1.80;;;;;;;21.91;50.11;101034.61;1724642;81;20993;-77
2022/05/14 07:07:36;;;;;;;4.30;1.55;;;;;;;21.41;49.34;101028.59;1710734;82;20930;-75
2022/05/14 07:10:03;;;;;;;5.33;1.47;;;;;;;21.01;49.40;101029.87;1716404;82;25108;-76
2022/05/14 07:12:30;;;;;;;10.50;1.70;;;;;;;20.77;49.33;101035.12;1729076;81;20883;-76
2022/05/14 07:14:56;;;;;;;;;;;;;;;20.55;49.11;101025.32;1720361;81;21430;-76
2022/05/14 07:17:22;;;;;;;5.35;1.75;;;;;;;20.27;48.49;101026.70;1728676;82;20169;-76
2022/05/14 07:19:49;;;;;;;5.80;2.00;;;;;;;19.98;48.62;101027.27;1728503;81;20914;-76
2022/05/14 07:22:16;;;;;;;7.15;1.90;;;;;;;19.64;48.01;101025.42;1728843;81;20926;-76
2022/05/14 07:24:42;;;;;;;4.10;1.40;;;;;;;19.21;47.66;101034.41;1723297;81;20886;-76
2022/05/14 07:27:11;;;;;;;7.42;2.20;;;;;;;18.93;47.85;101039.56;1729392;81;20909;-76
2022/05/14 07:29:44;;;;;;;6.40;1.95;;;;;;;18.68;47.55;101038.94;1734512;81;20898;-77
2022/05/14 07:32:17;;;;;;;2.30;1.40;;;;;;;18.46;47.59;101041.13;1736534;80;20955;-76
2022/05/14 07:34:43;;;;;;;12.70;2.30;;;;;;;18.34;47.44;101042.09;1736758;79;21039;-76
2022/05/14 07:37:16;;;;;;;7.12;1.60;;;;;;;18.15;47.25;101045.48;1744714;79;21053;-76
2022/05/14 07:40:05;;;;;;;2.80;1.32;;;;;;;17.91;46.91;101039.92;1763108;79;21069;-75
2022/05/14 07:42:46;;;;;;;10.15;1.90;;;;;;;17.65;46.83;101040.07;1765484;79;21537;-75
2022/05/14 07:45:17;;;;;;;9.70;1.85;;;;;;;17.44;46.66;101039.97;1769055;79;21469;-75
2022/05/14 07:47:43;;;;;;;5.72;1.62;;;;;;;17.30;46.69;101037.47;1765925;79;21408;-75
2022/05/14 07:50:10;;;;;;;5.85;1.87;;;;;;;17.28;46.81;101039.29;1764833;79;21073;-75
2022/05/14 07:52:37;;;;;;;8.35;1.75;;;;;;;17.31;46.68;101030.88;1766221;80;20986;-76
2022/05/14 07:55:05;;;;;;;5.60;1.87;;;;;;;17.38;46.64;101031.05;1758761;79;21566;-76
2022/05/14 07:57:31;;;;;;;7.65;2.00;;;;;;;17.53;46.73;101038.32;1756250;79;21085;-75
2022/05/14 07:59:57;;;;;;;7.65;1.80;;;;;;;17.69;46.57;101028.58;1754690;79;21502;-75
2022/05/14 08:02:32;;;;;;;9.18;2.45;;;;;;;17.80;46.63;101028.56;1759092;80;21553;-76
2022/05/14 08:05:01;;;;;;;5.87;1.67;;;;;;;17.88;46.40;101030.03;1772009;79;20912;-76
2022/05/14 08:07:27;;;;;;;5.17;1.72;;;;;;;17.85;46.25;101025.77;1759916;79;20907;-76
2022/05/14 08:09:53;;;;;;;6.13;1.70;;;;;;;17.80;46.27;101022.02;1743095;81;20980;-76
2022/05/14 08:12:19;;;;;;;7.73;2.53;;;;;;;17.74;46.33;101014.88;1747014;80;20938;-75
2022/05/14 08:14:45;;;;;;;6.70;1.77;;;;;;;17.70;46.26;101018.06;1765451;79;20874;-76
2022/05/14 08:17:12;;;;;;;7.62;2.50;;;;;;;17.69;46.33;101016.81;1769882;79;20882;-77
2022/05/14 08:19:38;;;;;;;7.13;1.97;;;;;;;17.96;46.56;101030.58;1764287;79;20874;-77
2022/05/14 08:24:51;;;;;;;7.28;2.47;;;;;;;18.89;46.50;101021.41;1768173;79;20915;-79
2022/05/14 08:27:17;;;;;;;8.53;2.37;;;;;;;19.24;46.17;101031.61;1776574;79;20959;-79
2022/05/14 08:29:48;;;;;;;7.00;2.00;;;;;;;19.32;45.93;101023.80;1732292;80;20946;-79
2022/05/14 08:32:18;;;;;;;5.78;2.37;;;;;;;19.36;46.02;101024.50;1730608;81;20969;-77
2022/05/14 08:34:43;;;;;;;10.75;2.90;;;;;;;19.47;46.06;101024.86;1723063;80;20915;-79
2022/05/14 08:37:09;;;;;;;5.43;2.60;;;;;;;19.67;46.13;101027.45;1724734;81;20833;-78
2022/05/14 08:39:36;;;;;;;7.27;2.07;;;;;;;19.74;45.17;101009.17;1691255;83;21648;-78
2022/05/14 08:42:08;;;;;;;8.18;2.27;;;;;;;19.73;45.81;101022.37;1722963;81;20930;-81
2022/05/14 08:44:34;;;;;;;7.78;2.22;;;;;;;19.83;45.76;101015.27;1715087;81;20894;-82
2022/05/14 08:47:06;;;;;;;8.43;2.80;;;;;;;19.92;45.65;101017.06;1738060;81;20966;-81
2022/05/14 08:49:40;;;;;;;5.33;2.20;;;;;;;19.87;45.46;101008.09;1715726;82;20934;-80
2022/05/14 08:52:14;;;;;;;6.05;2.25;;;;;;;19.77;45.38;101012.94;1716231;81;21225;-80
2022/05/14 08:54:46;;;;;;;9.38;2.70;;;;;;;19.70;45.46;101008.94;1725286;80;20926;-82
2022/05/14 08:57:34;;;;;;;9.00;2.50;;;;;;;19.75;45.54;101017.90;1714182;81;20965;-80
2022/05/14 09:00:05;;;;;;;7.08;2.10;;;;;;;19.80;45.42;101017.19;1725753;82;20946;-81
2022/05/14 09:02:45;;;;;;;8.00;2.17;;;;;;;19.81;45.28;101010.55;1730034;82;21092;-79
2022/05/14 09:05:20;;;;;;;15.18;3.37;;;;;;;19.83;45.19;101000.83;1727430;82;20966;-78
2022/05/14 09:07:48;;;;;;;6.35;2.42;;;;;;;19.88;45.21;101009.80;1725441;82;20981;-77
2022/05/14 09:10:38;;;;;;;8.88;2.98;;;;;;;19.98;45.26;101006.27;1725031;81;21044;-77
2022/05/14 09:13:18;;;;;;;10.13;2.25;;;;;;;20.06;45.11;101008.06;1722032;81;21330;-77
2022/05/14 09:16:02;;;;;;;6.50;2.15;;;;;;;20.05;44.60;101004.58;1729354;81;21064;-77
2022/05/14 09:18:34;;;;;;;6.28;2.10;;;;;;;19.87;44.80;101008.09;1730196;80;21105;-77
2022/05/14 09:21:05;;;;;;;5.90;1.80;;;;;;;19.94;44.76;101005.56;1720050;81;21037;-76
2022/05/14 09:23:39;;;;;;;6.22;2.37;;;;;;;20.06;44.71;100996.25;1726461;81;21586;-76
2022/05/14 09:26:19;;;;;;;6.00;2.17;;;;;;;20.19;44.50;100996.49;1723481;81;21596;-76
2022/05/14 09:28:49;;;;;;;5.65;2.05;;;;;;;20.19;44.43;101005.22;1734865;81;21020;-77
2022/05/14 09:31:34;;;;;;;9.73;2.00;;;;;;;20.14;44.41;101000.19;1755465;79;21058;-76
2022/05/14 09:34:11;;;;;;;5.15;2.25;;;;;;;20.10;44.21;101000.42;1760174;79;21089;-76
2022/05/14 09:36:38;;;;;;;6.17;2.12;;;;;;;19.98;44.14;101012.37;1764386;79;21036;-77
2022/05/14 09:39:15;;;;;;;8.90;2.02;;;;;;;19.84;44.25;100992.50;1773242;78;21059;-77
2022/05/14 09:41:46;;;;;;;9.73;2.02;;;;;;;19.97;44.29;100992.30;1760911;79;21110;-76
2022/05/14 09:44:30;;;;;;;6.70;2.12;;;;;;;20.12;44.38;100995.48;1732319;80;21108;-77
2022/05/14 09:47:10;;;;;;;6.78;2.35;;;;;;;20.29;44.10;101006.89;1745204;79;21481;-76
2022/05/14 09:49:59;;;;;;;6.67;2.20;;;;;;;20.27;44.09;100999.13;1758025;79;20927;-79
2022/05/14 09:52:29;;;;;;;7.95;2.40;;;;;;;20.27;44.08;100991.24;1760882;78;21415;-78
2022/05/14 09:54:57;;;;;;;6.22;2.15;;;;;;;20.27;43.85;100985.99;1767943;79;21256;-81
2022/05/14 09:57:40;;;;;;;5.62;2.40;;;;;;;20.22;44.10;100991.94;1765087;79;22201;-74
2022/05/14 10:00:36;;;;;;;7.28;2.92;;;;;;;20.19;44.06;100988.15;1762689;79;21062;-76
2022/05/14 10:03:19;;;;;;;7.78;2.22;;;;;;;20.19;44.03;100985.52;1745770;80;20907;-77
2022/05/14 10:06:10;;;;;;;10.00;2.35;;;;;;;20.35;44.11;100979.86;1758016;80;21479;-77
2022/05/14 10:09:09;;;;;;;5.65;2.08;;;;;;;20.47;43.95;100970.07;1757431;79;21412;-77
2022/05/14 10:11:45;;;;;;;7.10;2.30;;;;;;;20.67;44.05;100962.94;1768069;79;20907;-77
2022/05/14 10:14:26;;;;;;;5.67;2.27;;;;;;;20.78;43.77;100965.39;1765430;79;20955;-77
2022/05/14 10:17:23;;;;;;;9.88;2.33;;;;;;;20.67;43.65;100980.88;1758920;79;20906;-77
2022/05/14 10:20:10;;;;;;;8.48;2.00;;;;;;;20.44;43.37;100982.05;1694257;82;20919;-77
2022/05/14 10:29:24;;;;;;;5.87;1.87;;;;;;;19.86;43.38;100984.55;1734411;80;21510;-79
2022/05/14 10:32:04;;;;;;;7.08;2.25;;;;;;;19.68;43.44;100990.25;1774576;80;20946;-79
2022/05/14 10:34:47;;;;;;;11.40;2.27;;;;;;;19.56;43.46;100993.45;1772946;79;20935;-79
2022/05/14 10:37:33;;;;;;;7.22;2.45;;;;;;;19.47;43.51;100999.95;1755088;80;21013;-79
2022/05/14 10:40:35;;;;;;;10.18;2.45;;;;;;;19.40;43.47;100995.91;1771108;80;21033;-79
2022/05/14 10:43:43;;;;;;;8.35;2.33;;;;;;;19.30;43.41;101002.49;1774472;80;21430;-79
2022/05/14 10:46:13;;;;;;;8.98;2.62;;;;;;;19.13;43.45;100999.36;1775485;78;21079;-80
2022/05/14 10:49:22;;;;;;;7.92;2.00;;;;;;;19.12;43.56;100992.41;1740881;80;21135;-79
2022/05/14 10:51:55;;;;;;;10.32;2.77;;;;;;;19.13;43.47;100986.25;1751408;79;20951;-78
2022/05/14 10:54:24;;;;;;;5.35;2.22;;;;;;;19.17;43.48;101004.39;1770921;79;21513;-83
2022/05/14 10:57:00;;;;;;;6.53;2.83;;;;;;;19.21;43.44;100995.08;1777029;78;21032;-85
2022/05/14 10:59:42;;;;;;;8.13;2.35;;;;;;;19.25;43.40;100989.59;1757549;78;21132;-81
2022/05/14 11:02:17;;;;;;;6.37;2.42;;;;;;;19.21;43.42;100999.86;1775007;80;21024;-82
2022/05/14 11:04:51;;;;;;;6.90;2.05;;;;;;;19.21;43.46;101006.87;1769963;78;21014;-82
2022/05/14 11:07:31;;;;;;;3.70;1.85;;;;;;;19.18;43.37;101006.09;1768603;80;20984;-81
2022/05/14 11:10:15;;;;;;;4.75;1.95;;;;;;;19.20;43.34;100994.23;1771979;78;21091;-81
2022/05/14 11:12:42;;;;;;;8.35;1.90;;;;;;;19.17;43.28;101000.46;1764253;80;21106;-81
2022/05/14 11:15:27;;;;;;;6.03;2.00;;;;;;;19.23;43.26;100999.33;1772901;79;21034;-82
2022/05/14 11:18:13;;;;;;;5.70;2.10;;;;;;;19.30;43.24;101007.73;1771620;79;21020;-82
2022/05/14 11:20:57;;;;;;;6.97;1.75;;;;;;;19.36;43.21;101012.70;1770764;78;21478;-81
2022/05/14 11:23:23;;;;;;;5.45;1.95;;;;;;;19.44;43.16;101009.27;1767917;78;21141;-81
2022/05/14 11:26:12;;;;;;;8.83;2.87;;;;;;;19.53;43.12;101011.50;1741046;80;21605;-80
2022/05/14 11:28:39;;;;;;;5.75;2.33;;;;;;;19.59;43.03;101005.11;1771705;79;20898;-79
2022/05/14 11:31:27;;;;;;;7.03;2.12;;;;;;;19.57;42.93;100998.63;1738565;80;21362;-80
2022/05/14 11:33:58;;;;;;;6.20;2.10;;;;;;;19.53;42.94;101000.16;1755208;80;20901;-78
2022/05/14 11:36:31;;;;;;;8.93;2.83;;;;;;;19.52;42.83;101006.33;1760190;80;22199;-76
2022/05/14 11:39:09;;;;;;;5.92;1.90;;;;;;;19.50;42.94;101009.84;1747497;79;21892;-79
2022/05/14 11:41:38;;;;;;;7.17;2.22;;;;;;;19.51;42.80;101010.72;1757029;79;21376;-76
2022/05/14 11:44:07;;;;;;;6.15;2.30;;;;;;;19.52;42.72;101007.63;1754575;80;21474;-75
2022/05/14 11:46:44;;;;;;;10.20;2.15;;;;;;;19.53;42.71;101008.02;1753723;79;20897;-75
2022/05/14 11:49:22;;;;;;;6.62;1.92;;;;;;;19.53;42.62;101017.20;1753643;80;21543;-75
2022/05/14 11:52:09;;;;;;;3.87;1.55;;;;;;;19.57;42.62;101010.43;1751493;80;21494;-76
2022/05/14 11:55:15;;;;;;;7.83;2.00;;;;;;;19.60;42.58;101015.53;1752315;80;22247;-75
2022/05/14 11:57:44;;;;;;;;;;;;;;;19.63;42.51;101022.41;1748423;80;21041;-76
2022/05/14 12:00:21;;;;;;;5.15;1.62;;;;;;;19.63;42.45;101021.95;1753175;80;21076;-77
2022/05/14 12:03:16;;;;;;;6.20;2.05;;;;;;;19.69;42.47;101014.25;1753953;80;20900;-79
2022/05/14 12:06:09;;;;;;;7.55;1.98;;;;;;;19.71;42.33;101015.88;1748288;79;21853;-74
2022/05/14 12:09:06;;;;;;;10.72;2.35;;;;;;;19.74;42.36;101023.61;1746398;80;21511;-74